createdAt,value
2024-04-14T00:00:37.847Z,65.5
2024-04-14T00:01:37.865Z,65.5
2024-04-14T00:02:37.817Z,65.5
2024-04-14T00:03:37.952Z,65.5
2024-04-14T00:04:38.077Z,65.5
2024-04-14T00:05:37.973Z,65.5
2024-04-14T00:06:37.857Z,65.5
2024-04-14T00:07:37.832Z,65.5
2024-04-14T00:08:37.824Z,65.5
2024-04-14T00:09:37.843Z,65.5
2024-04-14T00:10:37.826Z,65.5
2024-04-14T00:11:37.835Z,65.5
2024-04-14T00:12:37.883Z,65.5
2024-04-14T00:13:37.829Z,65.5
2024-04-14T00:14:37.874Z,65.5
2024-04-14T00:15:37.832Z,65.5
2024-04-14T00:16:37.864Z,65.5
2024-04-14T00:17:37.867Z,65.5
2024-04-14T00:18:37.995Z,65.5
2024-04-14T00:19:37.885Z,65.5
2024-04-14T00:20:37.854Z,65.5
2024-04-14T00:21:37.861Z,65.5
2024-04-14T00:22:37.870Z,65.5
2024-04-14T00:23:37.831Z,65.5
2024-04-14T00:24:37.962Z,65.5
2024-04-14T00:25:37.849Z,65.5
2024-04-14T00:26:37.816Z,65.5
2024-04-14T00:27:37.853Z,65.5
2024-04-14T00:28:37.840Z,65.5
2024-04-14T00:29:37.825Z,65.5
2024-04-14T00:30:37.909Z,65.5
2024-04-14T00:31:37.854Z,65.5
2024-04-14T00:32:37.907Z,65.5
2024-04-14T00:33:37.921Z,66
2024-04-14T00:34:37.841Z,66
2024-04-14T00:35:37.826Z,66
2024-04-14T00:36:37.862Z,65.7
2024-04-14T00:37:37.844Z,65.7
2024-04-14T00:38:37.829Z,65.7
2024-04-14T00:39:37.867Z,65.7
2024-04-14T00:40:37.821Z,65.7
2024-04-14T00:41:37.826Z,65.7
2024-04-14T00:42:37.925Z,65.7
2024-04-14T00:43:37.830Z,65.7
2024-04-14T00:44:37.840Z,65.7
2024-04-14T00:45:37.835Z,65.7
2024-04-14T00:46:37.850Z,65.7
2024-04-14T00:47:37.839Z,65.7
2024-04-14T00:48:37.970Z,65.7
2024-04-14T00:49:37.817Z,65.7
2024-04-14T00:50:37.819Z,65.7
2024-04-14T00:51:37.872Z,65.7
2024-04-14T00:52:37.843Z,65.7
2024-04-14T00:53:37.815Z,65.7
2024-04-14T00:54:37.939Z,65.7
2024-04-14T00:55:37.841Z,65.7
2024-04-14T00:56:37.827Z,65.7
2024-04-14T00:57:37.862Z,65.7
2024-04-14T00:58:37.822Z,65.7
2024-04-14T00:59:37.842Z,65.7
2024-04-14T01:00:38.002Z,65.7
2024-04-14T01:01:37.908Z,65.7
2024-04-14T01:02:37.840Z,65.7
2024-04-14T01:03:38.053Z,65.7
2024-04-14T01:04:37.960Z,65.7
2024-04-14T01:05:37.875Z,65.7
2024-04-14T01:06:37.864Z,65.7
2024-04-14T01:07:37.850Z,65.7
2024-04-14T01:08:37.835Z,66.2
2024-04-14T01:09:37.884Z,66.2
2024-04-14T01:10:37.902Z,66.2
2024-04-14T01:11:37.838Z,66.2
2024-04-14T01:12:37.864Z,66.2
2024-04-14T01:13:37.845Z,66.2
2024-04-14T01:14:37.858Z,66.2
2024-04-14T01:15:37.910Z,66.2
2024-04-14T01:16:38.041Z,66.2
2024-04-14T01:17:37.946Z,66.2
2024-04-14T01:18:37.929Z,66.2
2024-04-14T01:19:37.841Z,66.2
2024-04-14T01:20:37.852Z,66.2
2024-04-14T01:21:37.977Z,66.2
2024-04-14T01:22:37.952Z,66.2
2024-04-14T01:23:37.829Z,66.2
2024-04-14T01:24:37.874Z,66.5
2024-04-14T01:25:37.844Z,66.5
2024-04-14T01:26:37.843Z,66.5
2024-04-14T01:27:37.870Z,66.5
2024-04-14T01:28:37.871Z,66.5
2024-04-14T01:29:37.841Z,66.5
2024-04-14T01:30:37.878Z,66.5
2024-04-14T01:31:37.819Z,66.5
2024-04-14T01:32:37.901Z,66.5
2024-04-14T01:33:37.931Z,66.5
2024-04-14T01:34:37.862Z,66.5
2024-04-14T01:35:37.849Z,66.5
2024-04-14T01:36:37.896Z,66.5
2024-04-14T01:37:37.850Z,66.5
2024-04-14T01:38:37.842Z,66.5
2024-04-14T01:39:38.020Z,66.5
2024-04-14T01:40:37.924Z,66.5
2024-04-14T01:41:37.830Z,66.5
2024-04-14T01:42:37.913Z,66.5
2024-04-14T01:43:37.822Z,66.5
2024-04-14T01:44:37.828Z,66.5
2024-04-14T01:45:37.894Z,66.5
2024-04-14T01:46:37.934Z,66.5
2024-04-14T01:47:37.934Z,66.5
2024-04-14T01:48:37.993Z,66.5
2024-04-14T01:49:37.850Z,66.5
2024-04-14T01:50:37.829Z,66.5
2024-04-14T01:51:37.884Z,66.5
2024-04-14T01:52:37.847Z,66.5
2024-04-14T01:53:37.830Z,67.3
2024-04-14T01:54:37.896Z,67.3
2024-04-14T01:55:37.846Z,67.3
2024-04-14T01:56:37.847Z,67.3
2024-04-14T01:57:37.931Z,67.3
2024-04-14T01:58:37.881Z,67.3
2024-04-14T01:59:37.835Z,67.3
2024-04-14T02:00:38.101Z,67.3
2024-04-14T02:01:38.025Z,67.3
2024-04-14T02:02:37.971Z,67.3
2024-04-14T02:03:38.135Z,67.3
2024-04-14T02:04:37.960Z,67.3
2024-04-14T02:05:37.889Z,67.3
2024-04-14T02:06:37.957Z,67.3
2024-04-14T02:07:37.885Z,67.3
2024-04-14T02:08:37.928Z,67.3
2024-04-14T02:09:38.068Z,67.3
2024-04-14T02:10:37.957Z,67.3
2024-04-14T02:11:37.978Z,67.3
2024-04-14T02:12:38.015Z,67.3
2024-04-14T02:13:37.984Z,67.3
2024-04-14T02:14:38.036Z,67.3
2024-04-14T02:15:37.965Z,67.3
2024-04-14T02:16:38.013Z,67.3
2024-04-14T02:17:37.928Z,68.4
2024-04-14T02:18:38.055Z,68.4
2024-04-14T02:19:37.855Z,68.4
2024-04-14T02:20:37.868Z,68.4
2024-04-14T02:21:37.889Z,68.4
2024-04-14T02:22:37.900Z,68.4
2024-04-14T02:23:37.838Z,68.4
2024-04-14T02:24:37.860Z,68.4
2024-04-14T02:25:37.874Z,68.9
2024-04-14T02:26:37.868Z,68.9
2024-04-14T02:27:37.864Z,68.9
2024-04-14T02:28:37.883Z,68.9
2024-04-14T02:29:37.865Z,68.9
2024-04-14T02:30:37.863Z,68.9
2024-04-14T02:31:37.852Z,68.9
2024-04-14T02:32:37.955Z,68.9
2024-04-14T02:33:37.883Z,68.9
2024-04-14T02:34:37.892Z,68.9
2024-04-14T02:35:37.839Z,68.9
2024-04-14T02:36:37.948Z,68.9
2024-04-14T02:37:37.849Z,68.9
2024-04-14T02:38:37.901Z,68.9
2024-04-14T02:39:37.914Z,68.9
2024-04-14T02:40:37.888Z,68.9
2024-04-14T02:41:37.858Z,68.9
2024-04-14T02:42:37.909Z,68.9
2024-04-14T02:43:37.839Z,68.9
2024-04-14T02:44:37.894Z,68.9
2024-04-14T02:45:37.905Z,68.9
2024-04-14T02:46:37.852Z,68.9
2024-04-14T02:47:37.943Z,68.9
2024-04-14T02:48:38.044Z,68.9
2024-04-14T02:49:37.865Z,68.9
2024-04-14T02:50:37.876Z,68.9
2024-04-14T02:51:37.906Z,68.9
2024-04-14T02:52:37.929Z,68.9
2024-04-14T02:53:37.855Z,68.9
2024-04-14T02:54:38.008Z,68.9
2024-04-14T02:55:37.850Z,68.9
2024-04-14T02:56:37.861Z,68.9
2024-04-14T02:57:37.939Z,68.9
2024-04-14T02:58:37.856Z,68.9
2024-04-14T02:59:37.860Z,68.9
2024-04-14T03:00:37.914Z,68.9
2024-04-14T03:01:37.864Z,68.9
2024-04-14T03:02:37.856Z,68.9
2024-04-14T03:03:37.907Z,68.9
2024-04-14T03:04:37.873Z,68.9
2024-04-14T03:05:37.897Z,68.9
2024-04-14T03:06:37.917Z,68.9
2024-04-14T03:07:37.839Z,68.9
2024-04-14T03:08:37.838Z,68.9
2024-04-14T03:09:38.018Z,68.9
2024-04-14T03:10:37.877Z,68.9
2024-04-14T03:11:37.856Z,68.9
2024-04-14T03:12:37.856Z,68.9
2024-04-14T03:13:37.880Z,69.4
2024-04-14T03:14:37.856Z,69.4
2024-04-14T03:15:37.925Z,69.4
2024-04-14T03:16:37.898Z,69.4
2024-04-14T03:17:37.883Z,69.4
2024-04-14T03:18:37.873Z,69.4
2024-04-14T03:19:37.860Z,69.4
2024-04-14T03:20:37.854Z,69.4
2024-04-14T03:21:37.956Z,69.4
2024-04-14T03:22:37.864Z,69.4
2024-04-14T03:23:37.869Z,69.4
2024-04-14T03:24:37.896Z,69.4
2024-04-14T03:25:37.844Z,69.4
2024-04-14T03:26:37.901Z,69.4
2024-04-14T03:27:37.921Z,69.4
2024-04-14T03:28:37.870Z,69.4
2024-04-14T03:29:37.876Z,69.4
2024-04-14T03:30:37.991Z,69.4
2024-04-14T03:31:37.942Z,69.4
2024-04-14T03:32:37.866Z,69.4
2024-04-14T03:33:37.884Z,69.4
2024-04-14T03:34:37.844Z,69.4
2024-04-14T03:35:37.866Z,69.4
2024-04-14T03:36:37.921Z,69.4
2024-04-14T03:37:40.489Z,69.4
2024-04-14T03:38:37.861Z,69.4
2024-04-14T03:39:37.898Z,69.4
2024-04-14T03:40:37.891Z,69.4
2024-04-14T03:41:37.866Z,69.4
2024-04-14T03:42:37.881Z,69.4
2024-04-14T03:43:37.848Z,69.4
2024-04-14T03:44:37.852Z,69.4
2024-04-14T03:45:37.888Z,69.4
2024-04-14T03:46:37.856Z,69.4
2024-04-14T03:47:37.981Z,69.4
2024-04-14T03:48:38.037Z,69.4
2024-04-14T03:49:37.866Z,69.4
2024-04-14T03:50:37.919Z,69.4
2024-04-14T03:51:37.943Z,69.4
2024-04-14T03:52:37.881Z,69.4
2024-04-14T03:53:37.863Z,69.4
2024-04-14T03:54:37.852Z,69.4
2024-04-14T03:55:37.865Z,69.4
2024-04-14T03:56:37.869Z,69.4
2024-04-14T03:57:37.972Z,69.4
2024-04-14T03:58:37.872Z,69.4
2024-04-14T03:59:37.859Z,69.4
2024-04-14T04:00:37.973Z,69.4
2024-04-14T04:01:37.919Z,70.7
2024-04-14T04:02:37.923Z,70.7
2024-04-14T04:03:37.913Z,70.7
2024-04-14T04:04:37.891Z,70.7
2024-04-14T04:05:37.875Z,70.7
2024-04-14T04:06:37.914Z,70.7
2024-04-14T04:07:37.856Z,70.7
2024-04-14T04:08:37.855Z,70.7
2024-04-14T04:09:37.906Z,70.7
2024-04-14T04:10:37.919Z,70.7
2024-04-14T04:11:38.005Z,70.7
2024-04-14T04:12:37.865Z,70.6
2024-04-14T04:13:37.852Z,70.6
2024-04-14T04:14:37.858Z,70.6
2024-04-14T04:15:37.919Z,70.6
2024-04-14T04:16:37.851Z,70.6
2024-04-14T04:17:37.949Z,70.6
2024-04-14T04:18:38.042Z,70.6
2024-04-14T04:19:37.959Z,70.6
2024-04-14T04:20:37.872Z,70.6
2024-04-14T04:21:37.965Z,70.6
2024-04-14T04:22:37.937Z,70.6
2024-04-14T04:23:37.875Z,70.6
2024-04-14T04:24:37.873Z,70.6
2024-04-14T04:25:37.852Z,70.6
2024-04-14T04:26:37.858Z,70.6
2024-04-14T04:27:37.863Z,70.6
2024-04-14T04:28:37.848Z,70.6
2024-04-14T04:29:37.869Z,70.6
2024-04-14T04:30:38.038Z,70.6
2024-04-14T04:31:37.909Z,70.6
2024-04-14T04:32:40.040Z,70.6
2024-04-14T04:33:37.981Z,70.6
2024-04-14T04:34:37.873Z,70.6
2024-04-14T04:35:37.860Z,70.6
2024-04-14T04:36:37.932Z,70.6
2024-04-14T04:37:37.865Z,70.6
2024-04-14T04:38:37.862Z,70.6
2024-04-14T04:39:37.892Z,70.6
2024-04-14T04:40:37.871Z,70.6
2024-04-14T04:41:37.865Z,70.6
2024-04-14T04:42:37.935Z,70.6
2024-04-14T04:43:37.886Z,70.6
2024-04-14T04:44:37.880Z,70.6
2024-04-14T04:45:37.935Z,70.6
2024-04-14T04:46:37.877Z,70.6
2024-04-14T04:47:37.948Z,70.6
2024-04-14T04:48:38.019Z,70.6
2024-04-14T04:49:37.910Z,70.6
2024-04-14T04:50:37.905Z,70.6
2024-04-14T04:51:37.981Z,70.6
2024-04-14T04:52:37.883Z,70.6
2024-04-14T04:53:37.878Z,70.6
2024-04-14T04:54:37.965Z,70.6
2024-04-14T04:55:37.878Z,70.6
2024-04-14T04:56:37.874Z,70.6
2024-04-14T04:57:37.888Z,70.6
2024-04-14T04:58:37.870Z,70.6
2024-04-14T04:59:37.855Z,70.6
2024-04-14T05:00:37.962Z,70.6
2024-04-14T05:01:37.975Z,70.6
2024-04-14T05:02:37.930Z,70.6
2024-04-14T05:03:37.982Z,70.6
2024-04-14T05:04:37.876Z,72.4
2024-04-14T05:05:37.952Z,72.4
2024-04-14T05:06:37.927Z,72.4
2024-04-14T05:07:37.876Z,72.4
2024-04-14T05:08:37.888Z,72.4
2024-04-14T05:09:37.865Z,72.4
2024-04-14T05:10:37.884Z,72.4
2024-04-14T05:11:37.911Z,72.4
2024-04-14T05:12:37.901Z,72.4
2024-04-14T05:13:37.866Z,72.4
2024-04-14T05:14:37.868Z,72.4
2024-04-14T05:15:37.886Z,72.4
2024-04-14T05:16:37.865Z,72.4
2024-04-14T05:17:37.936Z,72.6
2024-04-14T05:18:38.204Z,72.6
2024-04-14T05:19:37.893Z,72.6
2024-04-14T05:20:37.858Z,72.6
2024-04-14T05:21:37.901Z,72.6
2024-04-14T05:22:37.868Z,72.6
2024-04-14T05:23:37.925Z,72.6
2024-04-14T05:24:37.949Z,72.6
2024-04-14T05:25:37.919Z,72.6
2024-04-14T05:26:37.869Z,72.6
2024-04-14T05:27:37.951Z,72.4
2024-04-14T05:28:37.888Z,72.4
2024-04-14T05:29:37.911Z,72.4
2024-04-14T05:30:37.942Z,72.4
2024-04-14T05:31:37.901Z,72.4
2024-04-14T05:32:40.480Z,72.4
2024-04-14T05:33:37.904Z,72.4
2024-04-14T05:34:37.871Z,72.1
2024-04-14T05:35:37.876Z,72.1
2024-04-14T05:36:37.893Z,72.1
2024-04-14T05:37:37.903Z,72.1
2024-04-14T05:38:37.860Z,72.1
2024-04-14T05:39:37.936Z,72.1
2024-04-14T05:40:37.882Z,72.1
2024-04-14T05:41:37.872Z,71.3
2024-04-14T05:42:37.906Z,71.3
2024-04-14T05:43:37.875Z,71.3
2024-04-14T05:44:37.882Z,71.3
2024-04-14T05:45:37.987Z,71.3
2024-04-14T05:46:37.872Z,71.3
2024-04-14T05:47:37.893Z,71.3
2024-04-14T05:48:37.954Z,70.6
2024-04-14T05:49:38.029Z,70.6
2024-04-14T05:50:37.878Z,70.6
2024-04-14T05:51:37.957Z,70.6
2024-04-14T05:52:37.883Z,70.6
2024-04-14T05:53:37.942Z,70.6
2024-04-14T05:54:37.883Z,70.6
2024-04-14T05:55:39.087Z,70.6
2024-04-14T05:56:37.875Z,70.6
2024-04-14T05:57:37.927Z,70.6
2024-04-14T05:58:37.892Z,70.4
2024-04-14T05:59:37.919Z,70.4
2024-04-14T06:00:38.079Z,70.4
2024-04-14T06:01:37.911Z,70.4
2024-04-14T06:02:37.963Z,70.4
2024-04-14T06:03:38.054Z,70.4
2024-04-14T06:04:37.984Z,70.4
2024-04-14T06:05:37.930Z,70.4
2024-04-14T06:06:37.887Z,70.4
2024-04-14T06:07:37.883Z,70.1
2024-04-14T06:08:37.858Z,70.1
2024-04-14T06:09:37.915Z,70.1
2024-04-14T06:10:37.866Z,70.1
2024-04-14T06:11:37.861Z,70.1
2024-04-14T06:12:37.914Z,70.1
2024-04-14T06:13:37.879Z,70.1
2024-04-14T06:14:37.876Z,70.1
2024-04-14T06:15:37.969Z,70.1
2024-04-14T06:16:37.942Z,69.4
2024-04-14T06:17:37.909Z,69.4
2024-04-14T06:18:37.924Z,69.4
2024-04-14T06:19:37.881Z,69.4
2024-04-14T06:20:37.873Z,69.4
2024-04-14T06:21:37.890Z,69.4
2024-04-14T06:22:37.921Z,69.4
2024-04-14T06:23:37.874Z,69.4
2024-04-14T06:24:37.918Z,69.4
2024-04-14T06:25:37.938Z,69.7
2024-04-14T06:26:37.943Z,69.7
2024-04-14T06:27:37.889Z,69.7
2024-04-14T06:28:37.921Z,69.7
2024-04-14T06:29:37.902Z,69.7
2024-04-14T06:30:37.958Z,69.7
2024-04-14T06:31:37.889Z,69.7
2024-04-14T06:32:37.984Z,69.7
2024-04-14T06:33:37.992Z,69.7
2024-04-14T06:34:37.902Z,69.7
2024-04-14T06:35:37.888Z,69.7
2024-04-14T06:36:37.923Z,69.3
2024-04-14T06:37:37.889Z,69.3
2024-04-14T06:38:37.933Z,69.3
2024-04-14T06:39:37.926Z,69.3
2024-04-14T06:40:37.880Z,69.3
2024-04-14T06:41:37.883Z,69.3
2024-04-14T06:42:37.950Z,69.3
2024-04-14T06:43:37.875Z,69.3
2024-04-14T06:44:37.902Z,69.3
2024-04-14T06:45:37.965Z,69.3
2024-04-14T06:46:37.879Z,69.1
2024-04-14T06:47:37.978Z,69.1
2024-04-14T06:48:37.999Z,69.1
2024-04-14T06:49:37.883Z,69.1
2024-04-14T06:50:37.885Z,69.1
2024-04-14T06:51:37.919Z,69.1
2024-04-14T06:52:37.887Z,69.1
2024-04-14T06:53:37.877Z,69.1
2024-04-14T06:54:37.947Z,69.1
2024-04-14T06:55:37.928Z,69.1
2024-04-14T06:56:37.894Z,69.9
2024-04-14T06:57:37.931Z,70.4
2024-04-14T06:58:37.933Z,70.4
2024-04-14T06:59:37.892Z,70.4
2024-04-14T07:00:39.087Z,70.4
2024-04-14T07:01:38.123Z,70.4
2024-04-14T07:02:37.966Z,70.4
2024-04-14T07:03:38.092Z,70.4
2024-04-14T07:04:38.044Z,70.4
2024-04-14T07:05:37.894Z,70.4
2024-04-14T07:06:37.946Z,70.4
2024-04-14T07:07:37.896Z,68.7
2024-04-14T07:08:37.879Z,68.7
2024-04-14T07:09:37.900Z,68.7
2024-04-14T07:10:37.911Z,68.7
2024-04-14T07:11:37.899Z,68.7
2024-04-14T07:12:37.971Z,68.7
2024-04-14T07:13:37.885Z,68.7
2024-04-14T07:14:37.915Z,68.7
2024-04-14T07:15:37.942Z,68.7
2024-04-14T07:16:37.906Z,67.9
2024-04-14T07:17:37.948Z,67.9
2024-04-14T07:18:38.051Z,67.9
2024-04-14T07:19:37.926Z,67.9
2024-04-14T07:20:37.901Z,67.9
2024-04-14T07:21:37.925Z,67.9
2024-04-14T07:22:37.893Z,67.9
2024-04-14T07:23:37.889Z,67.9
2024-04-14T07:24:37.969Z,67.9
2024-04-14T07:25:37.911Z,67.7
2024-04-14T07:26:37.884Z,67.7
2024-04-14T07:27:37.976Z,67.7
2024-04-14T07:28:37.905Z,67.7
2024-04-14T07:29:37.900Z,67.7
2024-04-14T07:30:37.954Z,67.7
2024-04-14T07:31:37.889Z,67.7
2024-04-14T07:32:38.024Z,67.7
2024-04-14T07:33:37.995Z,67.7
2024-04-14T07:34:37.923Z,66.1
2024-04-14T07:35:37.901Z,66.1
2024-04-14T07:36:37.965Z,66.1
2024-04-14T07:37:37.912Z,66.1
2024-04-14T07:38:37.895Z,66.1
2024-04-14T07:39:37.970Z,66.1
2024-04-14T07:40:37.908Z,66.1
2024-04-14T07:41:37.921Z,66.1
2024-04-14T07:42:37.954Z,64.9
2024-04-14T07:43:37.934Z,64.9
2024-04-14T07:44:37.897Z,64.9
2024-04-14T07:45:37.921Z,64.9
2024-04-14T07:46:37.907Z,64.9
2024-04-14T07:47:39.164Z,64.9
2024-04-14T07:48:38.030Z,64.9
2024-04-14T07:49:37.910Z,64.9
2024-04-14T07:50:37.916Z,64.9
2024-04-14T07:51:37.957Z,64.9
2024-04-14T07:52:37.909Z,64.9
2024-04-14T07:53:37.918Z,64.9
2024-04-14T07:54:39.079Z,64.9
2024-04-14T07:55:37.905Z,64.9
2024-04-14T07:56:37.908Z,64.9
2024-04-14T07:57:37.930Z,63.6
2024-04-14T07:58:37.914Z,64
2024-04-14T07:59:37.915Z,64
2024-04-14T08:00:37.966Z,64
2024-04-14T08:01:37.974Z,64
2024-04-14T08:02:37.907Z,64
2024-04-14T08:03:47.327Z,64
2024-04-14T08:04:38.090Z,64
2024-04-14T08:05:40.756Z,64
2024-04-14T08:06:37.996Z,64
2024-04-14T08:07:37.909Z,64
2024-04-14T08:08:37.955Z,64
2024-04-14T08:09:37.925Z,64
2024-04-14T08:10:37.916Z,64
2024-04-14T08:11:37.957Z,64
2024-04-14T08:12:38.173Z,64
2024-04-14T08:13:37.904Z,64
2024-04-14T08:14:37.962Z,64
2024-04-14T08:15:38.038Z,64
2024-04-14T08:16:37.921Z,64
2024-04-14T08:17:37.937Z,64
2024-04-14T08:18:37.955Z,64
2024-04-14T08:19:37.915Z,64
2024-04-14T08:20:37.944Z,64
2024-04-14T08:21:38.005Z,64
2024-04-14T08:22:37.952Z,64
2024-04-14T08:23:37.945Z,62
2024-04-14T08:24:37.945Z,62
2024-04-14T08:25:38.168Z,62
2024-04-14T08:26:37.957Z,62
2024-04-14T08:27:37.967Z,62
2024-04-14T08:28:37.919Z,62
2024-04-14T08:29:37.925Z,62
2024-04-14T08:30:37.933Z,62
2024-04-14T08:31:37.923Z,62
2024-04-14T08:32:37.939Z,62
2024-04-14T08:33:38.024Z,62
2024-04-14T08:34:38.006Z,62
2024-04-14T08:35:37.933Z,62
2024-04-14T08:36:37.983Z,62
2024-04-14T08:37:37.933Z,62
2024-04-14T08:38:37.930Z,62
2024-04-14T08:39:37.960Z,62
2024-04-14T08:40:37.928Z,60.2
2024-04-14T08:41:37.935Z,60.2
2024-04-14T08:42:37.952Z,60.2
2024-04-14T08:43:38.780Z,60.2
2024-04-14T08:44:37.973Z,60.2
2024-04-14T08:45:37.975Z,60.2
2024-04-14T08:46:37.982Z,60.2
2024-04-14T08:47:38.003Z,60.2
2024-04-14T08:48:37.978Z,60.2
2024-04-14T08:49:37.950Z,60.2
2024-04-14T08:50:37.982Z,60.2
2024-04-14T08:51:37.957Z,60.2
2024-04-14T08:52:37.930Z,60.2
2024-04-14T08:53:37.944Z,60.2
2024-04-14T08:54:37.979Z,60.2
2024-04-14T08:55:37.951Z,60.2
2024-04-14T08:56:37.970Z,60.2
2024-04-14T08:57:37.945Z,59.1
2024-04-14T08:58:37.951Z,59.1
2024-04-14T08:59:37.937Z,59.1
2024-04-14T09:00:37.996Z,59.1
2024-04-14T09:01:38.084Z,59.1
2024-04-14T09:02:37.976Z,59.1
2024-04-14T09:03:38.013Z,59.1
2024-04-14T09:04:37.980Z,59.1
2024-04-14T09:05:37.942Z,59.1
2024-04-14T09:06:38.010Z,59.1
2024-04-14T09:07:37.934Z,59.1
2024-04-14T09:08:37.990Z,59.1
2024-04-14T09:09:37.971Z,59.1
2024-04-14T09:10:37.983Z,59.1
2024-04-14T09:11:37.939Z,59.1
2024-04-14T09:12:38.047Z,59.1
2024-04-14T09:13:37.957Z,55.4
2024-04-14T09:14:38.012Z,55.4
2024-04-14T09:15:37.989Z,55.4
2024-04-14T09:16:38.139Z,55.4
2024-04-14T09:17:37.946Z,55.4
2024-04-14T09:18:38.013Z,55.4
2024-04-14T09:19:40.552Z,55.4
2024-04-14T09:20:37.961Z,55.4
2024-04-14T09:21:37.975Z,55.4
2024-04-14T09:22:37.996Z,55.4
2024-04-14T09:23:37.963Z,55.4
2024-04-14T09:24:37.966Z,55.4
2024-04-14T09:25:37.951Z,55.4
2024-04-14T09:26:37.946Z,55.4
2024-04-14T09:27:38.015Z,55.5
2024-04-14T09:28:38.000Z,55.5
2024-04-14T09:29:37.961Z,55.5
2024-04-14T09:30:37.989Z,55.5
2024-04-14T09:31:37.976Z,55.5
2024-04-14T09:32:38.007Z,55.5
2024-04-14T09:33:38.021Z,55.5
2024-04-14T09:34:37.953Z,55.5
2024-04-14T09:35:37.966Z,55.5
2024-04-14T09:36:38.165Z,55.5
2024-04-14T09:37:37.960Z,55.5
2024-04-14T09:38:37.970Z,55.5
2024-04-14T09:39:38.001Z,55.5
2024-04-14T09:40:37.960Z,55.5
2024-04-14T09:41:38.105Z,55.5
2024-04-14T09:42:37.994Z,55.5
2024-04-14T09:43:37.957Z,55.5
2024-04-14T09:44:38.004Z,55.5
2024-04-14T09:45:37.970Z,55.5
2024-04-14T09:46:37.981Z,55.5
2024-04-14T09:47:38.085Z,55.5
2024-04-14T09:48:37.970Z,55.5
2024-04-14T09:49:37.960Z,53.6
2024-04-14T09:50:37.969Z,53.6
2024-04-14T09:51:37.991Z,53.6
2024-04-14T09:52:37.965Z,53.6
2024-04-14T09:53:37.956Z,53.6
2024-04-14T09:54:38.027Z,53.6
2024-04-14T09:55:40.554Z,53.6
2024-04-14T09:56:37.988Z,53.6
2024-04-14T09:57:37.987Z,53.1
2024-04-14T09:58:37.969Z,53.1
2024-04-14T09:59:37.962Z,53.1
2024-04-14T10:00:38.048Z,53.1
2024-04-14T10:01:38.130Z,53.1
2024-04-14T10:02:38.006Z,53.1
2024-04-14T10:03:38.038Z,52
2024-04-14T10:04:38.059Z,52
2024-04-14T10:05:38.009Z,52
2024-04-14T10:06:38.007Z,52
2024-04-14T10:07:37.974Z,52
2024-04-14T10:08:38.005Z,52
2024-04-14T10:09:37.974Z,52
2024-04-14T10:10:37.971Z,52
2024-04-14T10:11:37.967Z,52
2024-04-14T10:12:37.998Z,52
2024-04-14T10:13:37.981Z,51.8
2024-04-14T10:14:37.965Z,51.8
2024-04-14T10:15:38.015Z,51.8
2024-04-14T10:16:38.134Z,51.8
2024-04-14T10:17:37.965Z,51.8
2024-04-14T10:18:38.018Z,51.8
2024-04-14T10:19:37.972Z,51.8
2024-04-14T10:20:37.985Z,51.8
2024-04-14T10:21:37.987Z,51.8
2024-04-14T10:22:37.967Z,51.8
2024-04-14T10:23:37.965Z,50.6
2024-04-14T10:24:37.995Z,50.6
2024-04-14T10:25:38.036Z,50.6
2024-04-14T10:26:38.001Z,50.6
2024-04-14T10:27:37.989Z,50.6
2024-04-14T10:28:37.973Z,50.6
2024-04-14T10:29:37.979Z,50.6
2024-04-14T10:30:38.005Z,50.6
2024-04-14T10:31:37.983Z,50.6
2024-04-14T10:32:38.007Z,50.6
2024-04-14T10:33:38.105Z,50.6
2024-04-14T10:34:38.032Z,50.6
2024-04-14T10:35:37.979Z,50.6
2024-04-14T10:36:38.044Z,50.6
2024-04-14T10:37:37.985Z,50.6
2024-04-14T10:38:37.990Z,50.2
2024-04-14T10:39:38.039Z,50.2
2024-04-14T10:40:38.013Z,50.2
2024-04-14T10:41:37.982Z,50.2
2024-04-14T10:42:38.003Z,50.2
2024-04-14T10:43:37.970Z,50.2
2024-04-14T10:44:37.985Z,50.2
2024-04-14T10:45:38.009Z,50.2
2024-04-14T10:46:38.056Z,50.2
2024-04-14T10:47:38.033Z,50.2
2024-04-14T10:48:38.001Z,50.2
2024-04-14T10:49:37.985Z,50.2
2024-04-14T10:50:37.980Z,50.2
2024-04-14T10:51:38.026Z,50.2
2024-04-14T10:52:37.987Z,50.2
2024-04-14T10:53:38.028Z,49
2024-04-14T10:54:38.003Z,49
2024-04-14T10:55:38.026Z,49
2024-04-14T10:56:38.027Z,49
2024-04-14T10:57:38.045Z,49
2024-04-14T10:58:37.999Z,49
2024-04-14T10:59:37.983Z,49
2024-04-14T11:00:38.059Z,49
2024-04-14T11:01:38.082Z,48.9
2024-04-14T11:02:38.022Z,48.9
2024-04-14T11:03:38.132Z,48.9
2024-04-14T11:04:38.263Z,48.9
2024-04-14T11:05:37.979Z,48.9
2024-04-14T11:06:38.033Z,48.9
2024-04-14T11:07:38.026Z,48.9
2024-04-14T11:08:37.991Z,48.9
2024-04-14T11:09:38.058Z,48.9
2024-04-14T11:10:38.074Z,48.9
2024-04-14T11:11:38.018Z,48.9
2024-04-14T11:12:38.118Z,48.9
2024-04-14T11:13:38.015Z,48.9
2024-04-14T11:14:38.034Z,48.9
2024-04-14T11:15:38.100Z,48.9
2024-04-14T11:16:38.086Z,48.9
2024-04-14T11:17:38.039Z,48.9
2024-04-14T11:18:38.060Z,48.9
2024-04-14T11:19:38.017Z,48.9
2024-04-14T11:20:38.004Z,48.9
2024-04-14T11:21:38.043Z,45.3
2024-04-14T11:22:37.994Z,45.3
2024-04-14T11:23:38.013Z,45.3
2024-04-14T11:24:38.031Z,45.3
2024-04-14T11:25:38.010Z,45.3
2024-04-14T11:26:38.036Z,45.3
2024-04-14T11:27:38.085Z,45.3
2024-04-14T11:28:38.012Z,45.3
2024-04-14T11:29:38.005Z,45.3
2024-04-14T11:30:38.024Z,45.3
2024-04-14T11:31:38.012Z,45.3
2024-04-14T11:32:38.066Z,45.3
2024-04-14T11:33:38.089Z,45.3
2024-04-14T11:34:38.101Z,45.3
2024-04-14T11:35:38.000Z,45.3
2024-04-14T11:36:38.047Z,45.3
2024-04-14T11:37:38.135Z,45.3
2024-04-14T11:38:37.996Z,43.4
2024-04-14T11:39:38.049Z,43.4
2024-04-14T11:40:38.016Z,43.4
2024-04-14T11:41:38.055Z,43.4
2024-04-14T11:42:38.027Z,43.4
2024-04-14T11:43:38.043Z,43.4
2024-04-14T11:44:38.013Z,45.2
2024-04-14T11:45:38.051Z,45.2
2024-04-14T11:46:38.058Z,45.2
2024-04-14T11:47:38.087Z,45.2
2024-04-14T11:48:38.029Z,45.2
2024-04-14T11:49:38.041Z,45.2
2024-04-14T11:50:38.021Z,45.2
2024-04-14T11:51:38.047Z,45.2
2024-04-14T11:52:38.023Z,45.2
2024-04-14T11:53:38.031Z,45.2
2024-04-14T11:54:38.066Z,45.2
2024-04-14T11:55:38.076Z,45.2
2024-04-14T11:56:38.024Z,45.2
2024-04-14T11:57:38.137Z,45.2
2024-04-14T11:58:38.011Z,45.2
2024-04-14T11:59:38.019Z,45.2
2024-04-14T12:00:38.122Z,45.2
2024-04-14T12:01:38.101Z,45.2
2024-04-14T12:02:38.060Z,45.2
2024-04-14T12:03:38.040Z,45.2
2024-04-14T12:04:38.104Z,45.2
2024-04-14T12:05:38.071Z,45.2
2024-04-14T12:06:38.052Z,45.2
2024-04-14T12:07:38.013Z,45.2
2024-04-14T12:08:38.034Z,45.2
2024-04-14T12:09:38.041Z,44.2
2024-04-14T12:10:38.034Z,44.2
2024-04-14T12:11:38.063Z,44.2
2024-04-14T12:12:38.054Z,44.2
2024-04-14T12:13:38.029Z,44.2
2024-04-14T12:14:38.033Z,44.2
2024-04-14T12:15:38.060Z,44.2
2024-04-14T12:16:38.098Z,44.2
2024-04-14T12:17:38.100Z,44.2
2024-04-14T12:18:38.160Z,44.2
2024-04-14T12:19:38.042Z,44.2
2024-04-14T12:20:38.053Z,44.2
2024-04-14T12:21:38.089Z,44.2
2024-04-14T12:22:38.122Z,44.2
2024-04-14T12:23:38.020Z,44.2
2024-04-14T12:24:38.095Z,44.2
2024-04-14T12:25:38.041Z,44.2
2024-04-14T12:26:38.049Z,45.7
2024-04-14T12:27:38.118Z,45.7
2024-04-14T12:28:38.030Z,45.7
2024-04-14T12:29:38.032Z,45.7
2024-04-14T12:30:43.669Z,45.7
2024-04-14T12:31:38.086Z,45.7
2024-04-14T12:32:38.074Z,45.7
2024-04-14T12:33:38.126Z,45.7
2024-04-14T12:34:38.042Z,45.7
2024-04-14T12:35:38.037Z,45.7
2024-04-14T12:36:38.027Z,45.7
2024-04-14T12:37:38.072Z,45.7
2024-04-14T12:38:38.029Z,45.7
2024-04-14T12:39:38.058Z,45.7
2024-04-14T12:40:38.032Z,45.7
2024-04-14T12:41:38.043Z,45.7
2024-04-14T12:42:38.044Z,44.9
2024-04-14T12:43:38.028Z,44.9
2024-04-14T12:44:38.024Z,44.9
2024-04-14T12:45:38.077Z,43.2
2024-04-14T12:46:38.058Z,43.2
2024-04-14T12:47:38.093Z,43.2
2024-04-14T12:48:38.034Z,43.2
2024-04-14T12:49:38.042Z,43.2
2024-04-14T12:50:44.244Z,43.2
2024-04-14T12:51:38.037Z,43.2
2024-04-14T12:52:38.023Z,43.2
2024-04-14T12:53:38.044Z,43.2
2024-04-14T12:54:38.076Z,43.2
2024-04-14T12:55:38.069Z,43.2
2024-04-14T12:56:38.034Z,43.2
2024-04-14T12:57:38.091Z,43.2
2024-04-14T12:58:38.052Z,43.2
2024-04-14T12:59:38.049Z,43.2
2024-04-14T13:00:38.069Z,43.2
2024-04-14T13:01:38.414Z,43.2
2024-04-14T13:02:38.090Z,43.2
2024-04-14T13:03:38.112Z,43.2
2024-04-14T13:04:38.072Z,43.2
2024-04-14T13:05:38.051Z,43.2
2024-04-14T13:06:38.072Z,43.2
2024-04-14T13:07:38.054Z,44.1
2024-04-14T13:08:38.061Z,44.1
2024-04-14T13:09:38.086Z,44.1
2024-04-14T13:10:38.106Z,44.1
2024-04-14T13:11:38.071Z,44.1
2024-04-14T13:12:38.071Z,44.1
2024-04-14T13:13:38.056Z,44.1
2024-04-14T13:14:38.046Z,44.1
2024-04-14T13:15:38.095Z,44.1
2024-04-14T13:16:38.182Z,44.1
2024-04-14T13:17:38.099Z,44.1
2024-04-14T13:18:38.086Z,44.1
2024-04-14T13:19:38.049Z,44.1
2024-04-14T13:20:38.084Z,44.1
2024-04-14T13:21:38.098Z,44.1
2024-04-14T13:22:38.107Z,44.1